Time;durP1;ratioP1;P1;durP2;ratioP2;P2;SDS_P1;SDS_P2;PMS_P1;PMS_P2;Temp;Humidity;BMP_temperature;BMP_pressure;BME280_temperature;BME280_humidity;BME280_pressure;Samples;Min_cycle;Max_cycle;Signal;HPM_P1;HPM_P2
2022/12/27 00:01:56;;;;;;;8.20;3.00;;;;;;;;;;5011502;28;20172;-42
2022/12/27 00:04:22;;;;;;;6.90;2.40;;;;;;;;;;5008716;28;20404;-42
2022/12/27 00:06:48;;;;;;;5.50;2.27;;;;;;;;;;5010366;28;20446;-43
2022/12/27 00:09:14;;;;;;;5.80;2.67;;;;;;;;;;5011830;28;20617;-42
2022/12/27 00:11:40;;;;;;;5.10;2.53;;;;;;;;;;5004219;28;20434;-42
2022/12/27 00:14:06;;;;;;;8.20;3.20;;;;;;;;;;5010870;28;20442;-42
2022/12/27 00:16:33;;;;;;;6.10;2.33;;;;;;;;;;5011434;28;20431;-42
2022/12/27 00:18:59;;;;;;;8.35;2.40;;;;;;;;;;5007449;28;20546;-42
2022/12/27 00:21:25;;;;;;;14.38;2.90;;;;;;;;;;5011447;28;20629;-42
2022/12/27 00:23:53;;;;;;;6.65;3.00;;;;;;;;;;5009352;28;20241;-42
2022/12/27 00:26:20;;;;;;;9.07;3.95;;;;;;;;;;5006416;28;20207;-41
2022/12/27 00:28:46;;;;;;;7.47;3.15;;;;;;;;;;5012182;28;20183;-42
2022/12/27 00:31:13;;;;;;;8.95;2.80;;;;;;;;;;5014886;28;20176;-42
2022/12/27 00:33:39;;;;;;;9.13;3.35;;;;;;;;;;5010965;28;20208;-42
2022/12/27 00:36:07;;;;;;;5.80;3.20;;;;;;;;;;5014872;28;20603;-41
2022/12/27 00:38:32;;;;;;;3.97;2.80;;;;;;;;;;5007688;28;20544;-41
2022/12/27 00:40:59;;;;;;;4.43;2.40;;;;;;;;;;5014738;28;20172;-42
2022/12/27 00:43:25;;;;;;;4.70;3.00;;;;;;;;;;5013021;28;20451;-42
2022/12/27 00:45:51;;;;;;;4.37;2.50;;;;;;;;;;5014062;28;20232;-42
2022/12/27 00:48:17;;;;;;;6.30;2.90;;;;;;;;;;5014454;28;20979;-43
2022/12/27 00:50:43;;;;;;;5.80;2.60;;;;;;;;;;5009042;28;20585;-42
2022/12/27 00:53:10;;;;;;;6.53;3.75;;;;;;;;;;5014537;28;20498;-42
2022/12/27 00:55:36;;;;;;;4.20;3.45;;;;;;;;;;5014535;28;20180;-42
2022/12/27 00:58:02;;;;;;;8.63;3.38;;;;;;;;;;5014184;28;20196;-42
2022/12/27 01:00:28;;;;;;;10.35;3.13;;;;;;;;;;5010599;28;20185;-42
2022/12/27 01:02:54;;;;;;;6.03;2.70;;;;;;;;;;5014190;28;20164;-42
2022/12/27 01:05:21;;;;;;;9.33;2.87;;;;;;;;;;5014390;28;20573;-42
2022/12/27 01:07:47;;;;;;;10.00;3.17;;;;;;;;;;5006962;28;20443;-42
2022/12/27 01:10:13;;;;;;;7.18;2.60;;;;;;;;;;5013782;28;20543;-42
2022/12/27 01:12:39;;;;;;;10.13;3.70;;;;;;;;;;5014550;28;20179;-42
2022/12/27 01:15:05;;;;;;;8.40;2.93;;;;;;;;;;5010421;28;20176;-43
2022/12/27 01:17:31;;;;;;;2.97;2.67;;;;;;;;;;5013663;28;20478;-42
2022/12/27 01:19:57;;;;;;;8.60;3.23;;;;;;;;;;5011323;28;20216;-42
2022/12/27 01:22:23;;;;;;;6.40;3.30;;;;;;;;;;5010105;28;20407;-43
2022/12/27 01:24:49;;;;;;;3.10;2.80;;;;;;;;;;5013511;28;20466;-41
2022/12/27 01:27:15;;;;;;;4.87;2.60;;;;;;;;;;5013672;28;20431;-42
2022/12/27 01:29:41;;;;;;;10.73;3.90;;;;;;;;;;5010081;28;20911;-43
2022/12/27 01:32:07;;;;;;;7.27;2.90;;;;;;;;;;5013828;28;20247;-41
2022/12/27 01:34:33;;;;;;;7.97;3.30;;;;;;;;;;5006925;28;20404;-42
2022/12/27 01:36:59;;;;;;;6.87;3.30;;;;;;;;;;5013115;28;20427;-41
2022/12/27 01:39:25;;;;;;;5.78;2.75;;;;;;;;;;5013575;28;20438;-42
2022/12/27 01:44:39;;;;;;;7.57;3.00;;;;;;;;;;5011057;28;21044;-42
2022/12/27 01:47:23;;;;;;;9.48;3.60;;;;;;;;;;5008092;28;20192;-42
2022/12/27 01:49:58;;;;;;;11.00;3.03;;;;;;;;;;5013363;28;20199;-43
2022/12/27 01:52:26;;;;;;;7.78;3.13;;;;;;;;;;5013537;28;20655;-42
2022/12/27 01:54:53;;;;;;;3.70;2.65;;;;;;;;;;5011289;28;20172;-42
2022/12/27 01:57:20;;;;;;;7.80;2.60;;;;;;;;;;5009626;28;20204;-41
2022/12/27 01:59:46;;;;;;;8.77;3.47;;;;;;;;;;5013145;28;20181;-42
2022/12/27 02:02:12;;;;;;;9.77;2.88;;;;;;;;;;5008270;28;20556;-42
2022/12/27 02:04:38;;;;;;;4.63;2.77;;;;;;;;;;5010152;28;20194;-42
2022/12/27 02:07:04;;;;;;;8.10;2.90;;;;;;;;;;5012580;28;20837;-41
2022/12/27 02:09:49;;;;;;;7.60;3.60;;;;;;;;;;5012616;28;20403;-41
2022/12/27 02:12:15;;;;;;;10.85;3.78;;;;;;;;;;5009654;28;20533;-42
2022/12/27 02:14:43;;;;;;;11.90;3.28;;;;;;;;;;5012881;28;20211;-43
2022/12/27 02:17:11;;;;;;;10.25;3.00;;;;;;;;;;5005986;28;20215;-43
2022/12/27 02:19:40;;;;;;;5.43;2.53;;;;;;;;;;5012659;28;20279;-42
2022/12/27 02:22:18;;;;;;;4.93;2.47;;;;;;;;;;5012803;28;20187;-42
2022/12/27 02:24:57;;;;;;;5.15;3.30;;;;;;;;;;5009545;28;20200;-42
2022/12/27 02:27:38;;;;;;;5.93;3.08;;;;;;;;;;5012603;28;20236;-42
2022/12/27 02:30:05;;;;;;;7.35;3.60;;;;;;;;;;4994652;28;20234;-41
2022/12/27 02:32:37;;;;;;;5.72;3.28;;;;;;;;;;5008430;28;20219;-41
2022/12/27 02:35:03;;;;;;;9.48;3.22;;;;;;;;;;5012904;28;20176;-42
2022/12/27 02:37:31;;;;;;;7.03;3.83;;;;;;;;;;5012308;28;20574;-43
2022/12/27 02:53:02;;;;;;;8.88;4.18;;;;;;;;;;5009192;28;21008;-42
2022/12/27 02:54:25;;;;;;;9.68;3.40;;;;;;;;;;5010645;28;20179;-42
2022/12/27 02:57:31;;;;;;;11.45;3.75;;;;;;;;;;5011528;28;20694;-42
2022/12/27 03:06:38;;;;;;;8.25;3.85;;;;;;;;;;5010160;28;20628;-42
2022/12/27 03:08:40;;;;;;;3.80;3.20;;;;;;;;;;5009424;28;20234;-43
2022/12/27 03:16:54;;;;;;;12.85;4.05;;;;;;;;;;5010440;28;20779;-41
2022/12/27 03:27:42;;;;;;;9.68;3.20;;;;;;;;;;5010455;28;20571;-42
2022/12/27 03:33:14;;;;;;;5.85;3.90;;;;;;;;;;5009508;28;20183;-42
2022/12/27 03:35:42;;;;;;;6.70;2.72;;;;;;;;;;5004683;28;20267;-41
2022/12/27 03:38:11;;;;;;;10.50;3.70;;;;;;;;;;5010838;28;20757;-42
2022/12/27 03:40:38;;;;;;;7.55;4.30;;;;;;;;;;5011595;28;20176;-42
2022/12/27 03:43:14;;;;;;;9.55;3.40;;;;;;;;;;5007818;28;20187;-42
2022/12/27 03:48:41;;;;;;;8.80;3.95;;;;;;;;;;5004558;28;20212;-41
2022/12/27 03:51:08;;;;;;;9.90;4.53;;;;;;;;;;5011062;28;20173;-41
2022/12/27 03:53:36;;;;;;;7.50;4.13;;;;;;;;;;5011633;28;20519;-41
2022/12/27 03:56:03;;;;;;;7.47;3.55;;;;;;;;;;5011297;28;20251;-42
2022/12/27 03:58:29;;;;;;;12.10;3.78;;;;;;;;;;5011532;28;20200;-43
2022/12/27 04:00:55;;;;;;;6.72;4.20;;;;;;;;;;5011634;28;20180;-42
2022/12/27 04:03:21;;;;;;;8.77;3.47;;;;;;;;;;5005453;28;20183;-44
2022/12/27 04:05:47;;;;;;;6.87;3.27;;;;;;;;;;5014799;28;20546;-42
2022/12/27 04:35:39;;;;;;;9.18;4.10;;;;;;;;;;5014928;28;20215;-41
2022/12/27 04:38:05;;;;;;;8.03;3.60;;;;;;;;;;5014517;28;20219;-42
2022/12/27 04:57:01;;;;;;;6.90;3.10;;;;;;;;;;5009011;28;20234;-42
2022/12/27 05:02:12;;;;;;;8.23;3.05;;;;;;;;;;5003957;28;20395;-42
2022/12/27 05:04:39;;;;;;;7.90;3.50;;;;;;;;;;5014433;28;20571;-41
2022/12/27 05:15:21;;;;;;;7.65;3.80;;;;;;;;;;5013253;28;20195;-41
2022/12/27 05:17:47;;;;;;;14.48;3.20;;;;;;;;;;5014465;28;20272;-40
2022/12/27 05:20:13;;;;;;;6.63;2.43;;;;;;;;;;5014168;28;20672;-41
2022/12/27 05:25:37;;;;;;;6.80;3.50;;;;;;;;;;5010456;28;20826;-40
2022/12/27 05:28:07;;;;;;;4.78;3.22;;;;;;;;;;5011972;28;20188;-42
2022/12/27 05:30:33;;;;;;;5.63;3.50;;;;;;;;;;5007377;28;20263;-43
2022/12/27 05:32:59;;;;;;;4.90;3.50;;;;;;;;;;5013799;28;20168;-42
2022/12/27 05:35:25;;;;;;;3.40;2.50;;;;;;;;;;5013836;28;20525;-40
2022/12/27 05:37:53;;;;;;;6.50;3.72;;;;;;;;;;5009983;28;20431;-41
2022/12/27 05:40:19;;;;;;;8.88;3.15;;;;;;;;;;5013628;28;20175;-40
2022/12/27 05:42:45;;;;;;;10.07;4.07;;;;;;;;;;5012947;28;20180;-41
2022/12/27 05:45:11;;;;;;;7.83;3.80;;;;;;;;;;5007846;28;20455;-40
2022/12/27 05:47:37;;;;;;;8.52;3.97;;;;;;;;;;5013180;28;20470;-41
2022/12/27 05:50:03;;;;;;;13.43;3.93;;;;;;;;;;5013565;28;20244;-41
2022/12/27 05:52:29;;;;;;;6.90;3.42;;;;;;;;;;5010026;28;20407;-41
2022/12/27 05:54:55;;;;;;;9.13;3.97;;;;;;;;;;5013395;28;20187;-41
2022/12/27 05:57:21;;;;;;;5.13;4.00;;;;;;;;;;5013165;28;20205;-41
2022/12/27 05:59:47;;;;;;;15.23;3.80;;;;;;;;;;5010718;28;20407;-41
2022/12/27 06:02:13;;;;;;;12.90;4.20;;;;;;;;;;5008023;28;20911;-41
2022/12/27 06:04:39;;;;;;;5.90;3.70;;;;;;;;;;5011582;28;20478;-42
2022/12/27 06:07:05;;;;;;;11.20;4.50;;;;;;;;;;5013389;28;21160;-41
2022/12/27 06:09:31;;;;;;;6.30;4.17;;;;;;;;;;5008363;28;20818;-41
2022/12/27 06:11:57;;;;;;;4.67;4.07;;;;;;;;;;5013146;28;20476;-40
2022/12/27 06:14:23;;;;;;;10.70;5.10;;;;;;;;;;5005881;28;20404;-40
2022/12/27 06:16:49;;;;;;;6.43;4.17;;;;;;;;;;5010667;28;20943;-41
2022/12/27 06:19:15;;;;;;;8.80;3.93;;;;;;;;;;5013037;28;20995;-41
2022/12/27 06:21:41;;;;;;;5.55;4.20;;;;;;;;;;5012840;28;20431;-40
2022/12/27 06:24:07;;;;;;;12.77;4.85;;;;;;;;;;5008207;28;20176;-40
2022/12/27 06:26:33;;;;;;;6.50;4.00;;;;;;;;;;5012412;28;20219;-40
2022/12/27 06:28:59;;;;;;;10.60;4.40;;;;;;;;;;5005042;28;20176;-41
2022/12/27 06:31:26;;;;;;;8.57;4.30;;;;;;;;;;5011354;28;20502;-42
2022/12/27 06:33:52;;;;;;;6.85;5.10;;;;;;;;;;5012709;28;20415;-41
2022/12/27 06:36:19;;;;;;;13.45;5.35;;;;;;;;;;5009112;28;20177;-41
2022/12/27 06:38:45;;;;;;;11.07;4.40;;;;;;;;;;5011486;28;20172;-41
2022/12/27 06:41:13;;;;;;;6.30;4.25;;;;;;;;;;5012687;28;20227;-41
2022/12/27 06:43:39;;;;;;;6.35;5.15;;;;;;;;;;5004913;28;20267;-41
2022/12/27 06:46:12;;;;;;;8.20;4.50;;;;;;;;;;5010988;28;20574;-41
2022/12/27 06:48:38;;;;;;;6.07;4.45;;;;;;;;;;5012252;28;20176;-41
2022/12/27 06:51:08;;;;;;;7.80;4.13;;;;;;;;;;5007967;28;20183;-40
2022/12/27 06:53:37;;;;;;;8.40;5.07;;;;;;;;;;5012459;28;20779;-40
2022/12/27 06:56:10;;;;;;;12.93;5.43;;;;;;;;;;5012082;28;20274;-42
2022/12/27 06:58:36;;;;;;;6.30;5.13;;;;;;;;;;5012349;28;20542;-40
2022/12/27 07:01:09;;;;;;;12.43;5.70;;;;;;;;;;5012268;28;20190;-40
2022/12/27 07:03:35;;;;;;;17.33;5.72;;;;;;;;;;5009653;28;20415;-40
2022/12/27 07:06:02;;;;;;;10.13;5.70;;;;;;;;;;5008084;28;20196;-41
2022/12/27 07:08:28;;;;;;;16.13;5.40;;;;;;;;;;5011573;28;20518;-41
2022/12/27 07:10:59;;;;;;;26.27;6.50;;;;;;;;;;5002458;28;20204;-42
2022/12/27 07:13:24;;;;;;;14.65;6.85;;;;;;;;;;5004626;28;20496;-41
2022/12/27 07:15:50;;;;;;;16.10;6.10;;;;;;;;;;5009795;28;20197;-41
2022/12/27 07:18:16;;;;;;;8.50;5.10;;;;;;;;;;5012096;28;20455;-42
2022/12/27 07:20:42;;;;;;;14.13;6.20;;;;;;;;;;5010442;28;20422;-40
2022/12/27 07:23:08;;;;;;;18.67;5.73;;;;;;;;;;5011879;28;20474;-40
2022/12/27 07:25:34;;;;;;;11.90;5.50;;;;;;;;;;5011821;28;20493;-40
2022/12/27 07:28:00;;;;;;;9.20;4.93;;;;;;;;;;5011844;28;20423;-40
2022/12/27 07:30:28;;;;;;;8.77;5.40;;;;;;;;;;5011626;28;20422;-40
2022/12/27 07:32:54;;;;;;;6.72;4.45;;;;;;;;;;5009005;28;20964;-40
2022/12/27 07:35:20;;;;;;;7.57;5.68;;;;;;;;;;5004952;28;20203;-40
2022/12/27 07:37:46;;;;;;;6.07;4.60;;;;;;;;;;5010629;28;20672;-41
2022/12/27 07:40:12;;;;;;;13.03;4.23;;;;;;;;;;4997781;28;20415;-40
2022/12/27 07:42:38;;;;;;;7.30;3.80;;;;;;;;;;5011677;28;20506;-40
2022/12/27 07:45:04;;;;;;;10.17;3.73;;;;;;;;;;5010073;28;20534;-40
2022/12/27 07:47:30;;;;;;;6.47;3.15;;;;;;;;;;5008329;28;20419;-40
2022/12/27 07:49:56;;;;;;;6.40;3.57;;;;;;;;;;5011644;28;20459;-39
2022/12/27 07:52:22;;;;;;;5.47;3.43;;;;;;;;;;5011863;28;20466;-40
2022/12/27 07:54:48;;;;;;;7.27;3.07;;;;;;;;;;5009807;28;20794;-40
2022/12/27 07:57:14;;;;;;;4.00;2.93;;;;;;;;;;5011340;28;20481;-40
2022/12/27 07:59:40;;;;;;;8.63;2.77;;;;;;;;;;5006290;28;20424;-41
2022/12/27 08:02:06;;;;;;;9.53;3.43;;;;;;;;;;5011599;28;20407;-42
2022/12/27 08:04:33;;;;;;;11.05;3.00;;;;;;;;;;5011354;28;20407;-39
2022/12/27 08:07:04;;;;;;;9.77;2.97;;;;;;;;;;5011352;28;20187;-40
2022/12/27 08:09:31;;;;;;;7.90;3.88;;;;;;;;;;4993549;28;20176;-40
2022/12/27 08:11:57;;;;;;;6.82;3.75;;;;;;;;;;5011532;28;20206;-40
2022/12/27 08:14:23;;;;;;;8.90;2.83;;;;;;;;;;5001262;28;20184;-40
2022/12/27 08:16:49;;;;;;;8.27;3.57;;;;;;;;;;5010684;28;20219;-39
2022/12/27 08:19:15;;;;;;;6.77;3.27;;;;;;;;;;5011524;28;20415;-41
2022/12/27 08:21:41;;;;;;;3.57;2.90;;;;;;;;;;4993704;28;20418;-42
2022/12/27 08:24:07;;;;;;;17.50;4.10;;;;;;;;;;5011439;28;20899;-40
2022/12/27 08:26:33;;;;;;;20.07;4.97;;;;;;;;;;5010901;28;20459;-40
2022/12/27 08:28:59;;;;;;;11.33;3.40;;;;;;;;;;5011395;28;20545;-40
2022/12/27 08:31:25;;;;;;;6.70;3.20;;;;;;;;;;5004517;28;20415;-40
2022/12/27 08:33:51;;;;;;;9.13;3.30;;;;;;;;;;5011316;28;20440;-40
2022/12/27 08:36:17;;;;;;;7.27;2.87;;;;;;;;;;5011104;28;20481;-41
2022/12/27 08:38:42;;;;;;;7.60;3.80;;;;;;;;;;5008037;28;20963;-41
2022/12/27 08:41:08;;;;;;;11.93;4.07;;;;;;;;;;5011141;28;20473;-41
2022/12/27 08:43:34;;;;;;;10.03;3.50;;;;;;;;;;5011175;28;20416;-42
2022/12/27 08:46:01;;;;;;;7.27;3.60;;;;;;;;;;5004366;28;20471;-40
2022/12/27 08:48:27;;;;;;;9.98;3.40;;;;;;;;;;5010861;28;20521;-41
2022/12/27 08:50:53;;;;;;;7.00;3.67;;;;;;;;;;5012508;28;20180;-41
2022/12/27 08:53:19;;;;;;;8.50;4.32;;;;;;;;;;5011346;28;20181;-41
2022/12/27 08:55:45;;;;;;;11.03;3.57;;;;;;;;;;5009380;28;20652;-44
2022/12/27 08:58:11;;;;;;;8.73;3.47;;;;;;;;;;5010258;28;20436;-40
2022/12/27 09:00:37;;;;;;;7.43;3.97;;;;;;;;;;5012200;28;20676;-40
2022/12/27 09:03:03;;;;;;;8.27;3.33;;;;;;;;;;5014500;28;20407;-40
2022/12/27 09:05:29;;;;;;;4.57;2.92;;;;;;;;;;5014340;28;20496;-40
2022/12/27 09:07:55;;;;;;;5.10;3.10;;;;;;;;;;5010866;28;20290;-40
2022/12/27 09:10:22;;;;;;;13.33;3.50;;;;;;;;;;5009369;28;20420;-40
2022/12/27 09:12:48;;;;;;;20.67;4.30;;;;;;;;;;5007876;28;20422;-42
2022/12/27 09:15:14;;;;;;;5.47;3.00;;;;;;;;;;5008272;28;20403;-40
2022/12/27 09:17:41;;;;;;;10.23;3.40;;;;;;;;;;4994333;28;20440;-40
2022/12/27 09:20:07;;;;;;;10.50;2.40;;;;;;;;;;5007957;28;20475;-40
2022/12/27 09:22:33;;;;;;;4.60;3.23;;;;;;;;;;5012144;28;20426;-40
2022/12/27 09:24:59;;;;;;;7.67;3.00;;;;;;;;;;5012482;28;20458;-42
2022/12/27 09:27:25;;;;;;;5.93;3.63;;;;;;;;;;5009362;28;20436;-42
2022/12/27 09:29:51;;;;;;;4.73;2.67;;;;;;;;;;5013815;28;20490;-41
2022/12/27 09:32:17;;;;;;;4.90;2.60;;;;;;;;;;5014106;28;20409;-41
2022/12/27 09:34:43;;;;;;;10.10;2.90;;;;;;;;;;5005820;28;20412;-41
2022/12/27 09:37:09;;;;;;;6.70;3.30;;;;;;;;;;5012115;28;20993;-41
2022/12/27 09:39:35;;;;;;;14.73;3.43;;;;;;;;;;5013666;28;20809;-41
2022/12/27 09:42:10;;;;;;;4.17;2.23;;;;;;;;;;5009097;28;20412;-42
2022/12/27 09:44:46;;;;;;;7.03;2.87;;;;;;;;;;5013870;28;20495;-41
2022/12/27 09:47:14;;;;;;;4.53;2.87;;;;;;;;;;5007763;28;20439;-41
2022/12/27 09:49:42;;;;;;;5.70;3.23;;;;;;;;;;5010218;28;20435;-40
2022/12/27 09:52:26;;;;;;;7.87;2.60;;;;;;;;;;5013602;28;20505;-41
2022/12/27 09:54:56;;;;;;;3.53;2.60;;;;;;;;;;5013803;28;20403;-42
2022/12/27 09:57:41;;;;;;;4.47;2.77;;;;;;;;;;5009021;28;20461;-42
2022/12/27 10:00:23;;;;;;;3.47;2.43;;;;;;;;;;5013453;28;20923;-41
2022/12/27 10:02:49;;;;;;;10.30;2.80;;;;;;;;;;5003430;28;20429;-41
2022/12/27 10:05:22;;;;;;;7.43;2.63;;;;;;;;;;5018479;28;20457;-41
2022/12/27 10:08:07;;;;;;;5.33;2.60;;;;;;;;;;5011310;28;20448;-42
2022/12/27 10:10:52;;;;;;;5.90;3.07;;;;;;;;;;5010384;28;20456;-41
2022/12/27 10:13:29;;;;;;;4.10;3.70;;;;;;;;;;5013334;28;20418;-41
2022/12/27 10:15:59;;;;;;;12.23;3.53;;;;;;;;;;5005307;28;20472;-41
2022/12/27 10:18:48;;;;;;;6.40;2.97;;;;;;;;;;5009196;28;20461;-42
2022/12/27 10:21:21;;;;;;;9.60;3.23;;;;;;;;;;5007743;28;20796;-40
2022/12/27 10:23:52;;;;;;;3.80;2.47;;;;;;;;;;5012909;28;20413;-41
2022/12/27 10:26:19;;;;;;;4.70;2.80;;;;;;;;;;5012681;28;20459;-41
2022/12/27 10:28:51;;;;;;;10.43;3.07;;;;;;;;;;5010850;28;20531;-41
2022/12/27 10:31:18;;;;;;;10.43;2.57;;;;;;;;;;5012750;28;20990;-42
2022/12/27 10:33:45;;;;;;;5.20;2.40;;;;;;;;;;5007364;28;20408;-40
2022/12/27 10:36:13;;;;;;;2.87;2.53;;;;;;;;;;5006974;28;20424;-41
2022/12/27 10:38:39;;;;;;;7.47;2.60;;;;;;;;;;5010157;28;20416;-42
2022/12/27 10:41:24;;;;;;;7.70;2.17;;;;;;;;;;5012760;28;20479;-41
2022/12/27 10:43:51;;;;;;;5.07;2.07;;;;;;;;;;5012190;28;20763;-40
2022/12/27 10:46:25;;;;;;;8.40;2.57;;;;;;;;;;5008316;28;20896;-41
2022/12/27 10:49:01;;;;;;;13.67;2.50;;;;;;;;;;5012165;28;20415;-41
2022/12/27 10:51:32;;;;;;;2.67;2.43;;;;;;;;;;5005539;28;20419;-41
2022/12/27 10:54:00;;;;;;;3.93;2.87;;;;;;;;;;5005516;28;20501;-41
2022/12/27 10:56:28;;;;;;;2.13;1.97;;;;;;;;;;5012467;28;20423;-42
2022/12/27 10:59:08;;;;;;;5.40;2.97;;;;;;;;;;4999714;28;20450;-41
2022/12/27 11:01:34;;;;;;;3.07;2.00;;;;;;;;;;5011083;28;20494;-41
2022/12/27 11:04:13;;;;;;;5.03;2.50;;;;;;;;;;4996665;28;20461;-42
2022/12/27 11:06:39;;;;;;;10.53;2.20;;;;;;;;;;4992315;28;21017;-42
2022/12/27 11:09:25;;;;;;;6.10;2.93;;;;;;;;;;4991708;28;20508;-42
2022/12/27 11:11:51;;;;;;;7.07;2.30;;;;;;;;;;4992721;28;20887;-43
2022/12/27 11:14:19;;;;;;;3.83;2.63;;;;;;;;;;4999736;28;20421;-42
2022/12/27 11:16:46;;;;;;;5.40;2.77;;;;;;;;;;5011247;28;20529;-42
2022/12/27 11:19:24;;;;;;;5.33;2.37;;;;;;;;;;5012072;28;20418;-42
2022/12/27 11:21:50;;;;;;;7.20;2.30;;;;;;;;;;5011998;28;20413;-43
2022/12/27 11:24:17;;;;;;;8.40;2.47;;;;;;;;;;5011770;28;20921;-42
2022/12/27 11:26:56;;;;;;;3.80;2.63;;;;;;;;;;5011438;28;20480;-42
2022/12/27 11:29:23;;;;;;;5.37;2.37;;;;;;;;;;5011987;28;20908;-43
2022/12/27 11:31:50;;;;;;;5.80;2.17;;;;;;;;;;5011754;28;20410;-42
2022/12/27 11:34:19;;;;;;;7.93;2.80;;;;;;;;;;5011776;28;20423;-42
2022/12/27 11:36:47;;;;;;;13.00;2.70;;;;;;;;;;5014420;28;20442;-42
2022/12/27 11:39:31;;;;;;;4.93;2.43;;;;;;;;;;5014022;28;20455;-44
2022/12/27 11:41:59;;;;;;;6.20;2.47;;;;;;;;;;5013859;28;20429;-44
2022/12/27 11:44:31;;;;;;;5.43;2.20;;;;;;;;;;5014954;28;20409;-43
2022/12/27 11:47:26;;;;;;;6.57;2.47;;;;;;;;;;5013740;28;20436;-44
2022/12/27 11:50:00;;;;;;;3.73;2.17;;;;;;;;;;5014462;28;20526;-43
2022/12/27 11:52:45;;;;;;;5.43;1.90;;;;;;;;;;5015139;28;20406;-43
2022/12/27 11:55:13;;;;;;;5.47;2.43;;;;;;;;;;5014331;28;20472;-43
2022/12/27 11:58:02;;;;;;;4.23;2.23;;;;;;;;;;4993941;28;20833;-42
2022/12/27 12:00:32;;;;;;;7.10;2.73;;;;;;;;;;5013492;28;20447;-42
2022/12/27 12:03:17;;;;;;;5.33;2.57;;;;;;;;;;5013874;28;20408;-43
2022/12/27 12:06:15;;;;;;;7.40;2.67;;;;;;;;;;5014353;28;20494;-43
2022/12/27 12:08:55;;;;;;;10.90;2.17;;;;;;;;;;4970994;28;20422;-44
2022/12/27 12:11:27;;;;;;;6.20;2.10;;;;;;;;;;5014813;28;20910;-43
2022/12/27 12:14:12;;;;;;;6.30;2.80;;;;;;;;;;5012488;28;20423;-41
2022/12/27 12:16:44;;;;;;;4.50;2.67;;;;;;;;;;5011195;28;20445;-40
2022/12/27 12:19:19;;;;;;;8.33;2.83;;;;;;;;;;5009899;28;20926;-41
2022/12/27 12:21:53;;;;;;;7.83;2.73;;;;;;;;;;5009321;28;20414;-44
2022/12/27 12:24:25;;;;;;;7.13;2.73;;;;;;;;;;5010088;28;20414;-40
2022/12/27 12:27:10;;;;;;;5.33;2.80;;;;;;;;;;5014333;28;21025;-42
2022/12/27 12:29:52;;;;;;;5.60;2.60;;;;;;;;;;5013547;28;20477;-41
2022/12/27 12:32:24;;;;;;;5.90;3.27;;;;;;;;;;5015642;28;20411;-41
2022/12/27 12:34:56;;;;;;;4.03;2.77;;;;;;;;;;5014918;28;20913;-42
2022/12/27 12:37:34;;;;;;;6.00;2.90;;;;;;;;;;5014779;28;20477;-41
2022/12/27 12:40:00;;;;;;;10.10;3.50;;;;;;;;;;5014940;28;20430;-41
2022/12/27 12:42:45;;;;;;;6.20;3.10;;;;;;;;;;5014839;28;20933;-42
2022/12/27 12:45:17;;;;;;;9.00;3.43;;;;;;;;;;5014641;28;21021;-41
2022/12/27 12:47:57;;;;;;;4.93;3.07;;;;;;;;;;5014528;28;20427;-42
2022/12/27 12:50:41;;;;;;;10.27;5.20;;;;;;;;;;5014768;28;20433;-41
2022/12/27 12:53:18;;;;;;;12.90;4.17;;;;;;;;;;5014602;28;20403;-42
2022/12/27 12:55:50;;;;;;;7.00;3.30;;;;;;;;;;5015024;28;20760;-41
2022/12/27 12:58:22;;;;;;;8.60;3.77;;;;;;;;;;5005341;28;20441;-42
2022/12/27 13:00:51;;;;;;;15.93;4.07;;;;;;;;;;5009354;28;20413;-42
2022/12/27 13:03:17;;;;;;;9.10;3.87;;;;;;;;;;5006110;28;20864;-41
2022/12/27 13:05:55;;;;;;;8.80;3.00;;;;;;;;;;5013712;28;20557;-41
2022/12/27 13:08:35;;;;;;;4.20;3.10;;;;;;;;;;5011832;28;20445;-41
2022/12/27 13:11:08;;;;;;;8.40;3.93;;;;;;;;;;5013422;28;20447;-41
2022/12/27 13:13:44;;;;;;;7.30;3.53;;;;;;;;;;4993725;28;20403;-42
2022/12/27 13:16:25;;;;;;;7.00;3.00;;;;;;;;;;5010586;28;20832;-42
2022/12/27 13:19:05;;;;;;;6.43;4.20;;;;;;;;;;5025762;28;20905;-42
2022/12/27 13:21:42;;;;;;;4.80;3.20;;;;;;;;;;5014503;28;20499;-43
2022/12/27 13:24:15;;;;;;;5.63;3.20;;;;;;;;;;5010498;28;20417;-42
2022/12/27 13:26:41;;;;;;;10.07;3.40;;;;;;;;;;5012722;28;20524;-41
2022/12/27 13:29:26;;;;;;;5.37;2.37;;;;;;;;;;5007945;28;20823;-42
2022/12/27 13:31:57;;;;;;;4.07;2.73;;;;;;;;;;5013776;28;20443;-42
2022/12/27 13:34:23;;;;;;;11.97;3.90;;;;;;;;;;5013904;28;20411;-41
2022/12/27 13:36:58;;;;;;;6.43;2.70;;;;;;;;;;5012332;28;20426;-42
2022/12/27 13:39:40;;;;;;;6.57;3.07;;;;;;;;;;5011163;28;20538;-43
2022/12/27 13:42:24;;;;;;;6.40;3.10;;;;;;;;;;5015774;28;20475;-42
2022/12/27 13:45:00;;;;;;;5.30;2.60;;;;;;;;;;5018433;28;20496;-41
2022/12/27 13:47:36;;;;;;;6.73;2.43;;;;;;;;;;5028628;28;20425;-42
2022/12/27 13:50:20;;;;;;;5.57;3.63;;;;;;;;;;5013122;28;20425;-42
2022/12/27 13:52:53;;;;;;;8.70;2.70;;;;;;;;;;5032066;28;20408;-42
2022/12/27 13:55:25;;;;;;;4.03;2.77;;;;;;;;;;5013557;28;20424;-42
2022/12/27 13:58:19;;;;;;;3.90;2.63;;;;;;;;;;5011657;28;20472;-42
2022/12/27 14:00:57;;;;;;;2.57;2.37;;;;;;;;;;5005903;28;20416;-41
2022/12/27 14:03:42;;;;;;;3.33;2.17;;;;;;;;;;5013167;28;20491;-41
2022/12/27 14:06:08;;;;;;;5.43;2.73;;;;;;;;;;5008940;28;20829;-42
2022/12/27 14:08:52;;;;;;;9.20;2.83;;;;;;;;;;4999726;28;20449;-41
2022/12/27 14:11:37;;;;;;;3.20;2.07;;;;;;;;;;4999473;28;20421;-41
2022/12/27 14:14:04;;;;;;;6.80;2.60;;;;;;;;;;5006880;28;20501;-42
2022/12/27 14:16:45;;;;;;;2.53;2.33;;;;;;;;;;5011308;28;20445;-41
2022/12/27 14:19:30;;;;;;;5.50;2.90;;;;;;;;;;5012090;28;20452;-42
2022/12/27 14:22:17;;;;;;;6.00;2.37;;;;;;;;;;5013021;28;20935;-42
2022/12/27 14:24:43;;;;;;;6.00;2.40;;;;;;;;;;5012170;28;20419;-41
2022/12/27 14:27:27;;;;;;;2.43;2.10;;;;;;;;;;5012248;28;20531;-41
2022/12/27 14:30:04;;;;;;;5.70;2.73;;;;;;;;;;5012686;28;20464;-42
2022/12/27 14:32:44;;;;;;;6.40;2.73;;;;;;;;;;5012935;28;20479;-41
2022/12/27 14:35:16;;;;;;;5.60;2.70;;;;;;;;;;5012684;28;20747;-41
2022/12/27 14:37:42;;;;;;;4.90;2.40;;;;;;;;;;5012580;28;20432;-41
2022/12/27 14:40:28;;;;;;;2.30;2.10;;;;;;;;;;5012632;28;20425;-42
2022/12/27 14:43:00;;;;;;;10.93;2.63;;;;;;;;;;5012595;28;20495;-41
2022/12/27 14:45:45;;;;;;;4.70;2.30;;;;;;;;;;5012420;28;20459;-41
2022/12/27 14:48:27;;;;;;;6.73;2.60;;;;;;;;;;5008823;28;20966;-41
2022/12/27 14:51:10;;;;;;;4.27;2.57;;;;;;;;;;5008400;28;20435;-41
2022/12/27 14:53:45;;;;;;;4.53;2.33;;;;;;;;;;5012311;28;20408;-43
2022/12/27 14:56:24;;;;;;;4.97;2.33;;;;;;;;;;5011875;28;20418;-42
2022/12/27 14:58:56;;;;;;;11.23;2.80;;;;;;;;;;5012254;28;20434;-42
2022/12/27 15:01:37;;;;;;;4.97;2.30;;;;;;;;;;5010050;28;20915;-41
2022/12/27 15:04:03;;;;;;;6.60;2.10;;;;;;;;;;5004658;28;20455;-42
2022/12/27 15:06:35;;;;;;;5.13;2.80;;;;;;;;;;5006668;28;20961;-42
2022/12/27 15:09:07;;;;;;;3.30;2.30;;;;;;;;;;5012253;28;20541;-42
2022/12/27 15:11:54;;;;;;;4.80;2.50;;;;;;;;;;5011864;28;20979;-42
2022/12/27 15:14:46;;;;;;;3.90;2.13;;;;;;;;;;5011266;28;20531;-43
2022/12/27 15:17:23;;;;;;;6.70;2.80;;;;;;;;;;5006603;28;20461;-42
2022/12/27 15:20:07;;;;;;;3.63;2.13;;;;;;;;;;5012222;28;20423;-42
2022/12/27 15:22:33;;;;;;;5.38;2.88;;;;;;;;;;5009229;28;20419;-42
2022/12/27 15:25:14;;;;;;;5.20;2.57;;;;;;;;;;5004816;28;20176;-42
2022/12/27 15:27:53;;;;;;;5.27;2.70;;;;;;;;;;5011085;28;20434;-42
2022/12/27 15:30:31;;;;;;;5.93;2.90;;;;;;;;;;5011893;28;20399;-42
2022/12/27 15:33:09;;;;;;;5.53;2.40;;;;;;;;;;5007757;28;20414;-42
2022/12/27 15:35:43;;;;;;;7.77;2.40;;;;;;;;;;5006346;28;20412;-42
2022/12/27 15:38:11;;;;;;;6.10;2.57;;;;;;;;;;5011371;28;20518;-41
2022/12/27 15:40:40;;;;;;;5.13;2.60;;;;;;;;;;5011370;28;20423;-41
2022/12/27 15:43:12;;;;;;;7.23;2.33;;;;;;;;;;5010090;28;20500;-43
2022/12/27 15:45:47;;;;;;;13.90;2.90;;;;;;;;;;5007509;28;20468;-42
2022/12/27 15:48:31;;;;;;;6.33;2.23;;;;;;;;;;5010970;28;20427;-42
2022/12/27 15:50:57;;;;;;;6.03;2.43;;;;;;;;;;5003340;28;20461;-42
2022/12/27 15:53:32;;;;;;;3.10;2.27;;;;;;;;;;5011705;28;20490;-42
2022/12/27 15:56:23;;;;;;;8.70;2.70;;;;;;;;;;5011520;28;20466;-41
2022/12/27 15:59:08;;;;;;;4.83;2.47;;;;;;;;;;5011334;28;20436;-42
2022/12/27 16:01:34;;;;;;;12.07;4.17;;;;;;;;;;5013017;28;20498;-42
2022/12/27 16:04:20;;;;;;;6.90;2.87;;;;;;;;;;4997027;28;20412;-42
2022/12/27 16:06:47;;;;;;;2.33;2.03;;;;;;;;;;4995345;28;20464;-41
2022/12/27 16:09:22;;;;;;;11.83;3.83;;;;;;;;;;4995639;28;20877;-41
2022/12/27 16:11:58;;;;;;;5.93;2.87;;;;;;;;;;4995484;28;20420;-41
2022/12/27 16:14:28;;;;;;;2.20;2.00;;;;;;;;;;4995511;28;20412;-41
2022/12/27 16:16:55;;;;;;;4.40;2.43;;;;;;;;;;4994984;28;20436;-42
2022/12/27 16:19:24;;;;;;;12.90;2.33;;;;;;;;;;4995090;28;20427;-41
2022/12/27 16:21:50;;;;;;;6.93;2.43;;;;;;;;;;4995165;28;20422;-41
2022/12/27 16:24:21;;;;;;;13.90;2.70;;;;;;;;;;4995306;28;20409;-41
2022/12/27 16:27:05;;;;;;;5.77;1.87;;;;;;;;;;4995107;28;20469;-42
2022/12/27 16:29:36;;;;;;;5.77;2.57;;;;;;;;;;4995262;28;20409;-42
2022/12/27 16:32:22;;;;;;;11.93;2.53;;;;;;;;;;4994899;28;20410;-41
2022/12/27 16:34:50;;;;;;;4.80;2.77;;;;;;;;;;4994947;28;20421;-43
2022/12/27 16:37:22;;;;;;;2.77;1.80;;;;;;;;;;4994734;28;20512;-42
2022/12/27 16:39:48;;;;;;;6.00;3.10;;;;;;;;;;4995019;28;20419;-43
2022/12/27 16:42:15;;;;;;;6.00;2.60;;;;;;;;;;4995048;28;20462;-42